sensor_id;sensor_type;location;lat;lon;timestamp;P1;durP1;ratioP1;P2;durP2;ratioP2
6177;SDS011;3122;48.208;11.174;2022-07-29T00:02:05;5.03;;;4.33;;
6177;SDS011;3122;48.208;11.174;2022-07-29T00:07:05;6.10;;;4.50;;
6177;SDS011;3122;48.208;11.174;2022-07-29T00:12:06;6.00;;;4.10;;
6177;SDS011;3122;48.208;11.174;2022-07-29T00:17:06;4.80;;;3.80;;
6177;SDS011;3122;48.208;11.174;2022-07-29T00:22:07;3.80;;;3.50;;
6177;SDS011;3122;48.208;11.174;2022-07-29T00:27:08;5.00;;;3.17;;
6177;SDS011;3122;48.208;11.174;2022-07-29T00:32:08;8.73;;;3.43;;
6177;SDS011;3122;48.208;11.174;2022-07-29T00:37:09;3.90;;;3.50;;
6177;SDS011;3122;48.208;11.174;2022-07-29T00:42:09;3.60;;;3.30;;
6177;SDS011;3122;48.208;11.174;2022-07-29T00:47:10;5.80;;;3.53;;
6177;SDS011;3122;48.208;11.174;2022-07-29T00:52:12;4.20;;;3.80;;
6177;SDS011;3122;48.208;11.174;2022-07-29T00:57:13;4.83;;;3.73;;
6177;SDS011;3122;48.208;11.174;2022-07-29T01:02:14;4.33;;;3.60;;
6177;SDS011;3122;48.208;11.174;2022-07-29T01:07:14;3.50;;;3.23;;
6177;SDS011;3122;48.208;11.174;2022-07-29T01:12:16;3.60;;;3.30;;
6177;SDS011;3122;48.208;11.174;2022-07-29T01:22:53;4.07;;;3.77;;
6177;SDS011;3122;48.208;11.174;2022-07-29T01:33:06;4.67;;;4.27;;
6177;SDS011;3122;48.208;11.174;2022-07-29T01:38:10;5.03;;;4.63;;
6177;SDS011;3122;48.208;11.174;2022-07-29T01:43:16;5.43;;;4.20;;
6177;SDS011;3122;48.208;11.174;2022-07-29T01:48:23;4.50;;;4.10;;
6177;SDS011;3122;48.208;11.174;2022-07-29T01:53:35;4.37;;;3.97;;
6177;SDS011;3122;48.208;11.174;2022-07-29T01:58:42;3.97;;;3.57;;
6177;SDS011;3122;48.208;11.174;2022-07-29T02:03:45;3.90;;;3.30;;
6177;SDS011;3122;48.208;11.174;2022-07-29T02:08:46;4.13;;;3.67;;
6177;SDS011;3122;48.208;11.174;2022-07-29T02:13:48;3.33;;;3.13;;
6177;SDS011;3122;48.208;11.174;2022-07-29T02:18:51;3.17;;;2.97;;
6177;SDS011;3122;48.208;11.174;2022-07-29T02:23:53;3.43;;;2.70;;
6177;SDS011;3122;48.208;11.174;2022-07-29T02:28:57;3.30;;;3.00;;
6177;SDS011;3122;48.208;11.174;2022-07-29T02:34:00;4.30;;;3.10;;
6177;SDS011;3122;48.208;11.174;2022-07-29T02:39:03;3.30;;;3.00;;
6177;SDS011;3122;48.208;11.174;2022-07-29T02:44:14;3.17;;;2.63;;
6177;SDS011;3122;48.208;11.174;2022-07-29T02:49:37;4.40;;;3.13;;
6177;SDS011;3122;48.208;11.174;2022-07-29T03:00:09;7.13;;;3.47;;
6177;SDS011;3122;48.208;11.174;2022-07-29T03:05:14;3.53;;;2.73;;
6177;SDS011;3122;48.208;11.174;2022-07-29T03:10:18;4.73;;;2.77;;
6177;SDS011;3122;48.208;11.174;2022-07-29T03:15:18;3.30;;;2.60;;
6177;SDS011;3122;48.208;11.174;2022-07-29T03:20:20;3.97;;;3.10;;
6177;SDS011;3122;48.208;11.174;2022-07-29T03:25:21;2.80;;;2.60;;
6177;SDS011;3122;48.208;11.174;2022-07-29T03:30:22;3.80;;;2.43;;
6177;SDS011;3122;48.208;11.174;2022-07-29T03:35:23;4.63;;;2.60;;
6177;SDS011;3122;48.208;11.174;2022-07-29T03:40:31;3.83;;;2.70;;
6177;SDS011;3122;48.208;11.174;2022-07-29T03:45:49;3.17;;;2.57;;
6177;SDS011;3122;48.208;11.174;2022-07-29T03:50:54;3.10;;;2.80;;
6177;SDS011;3122;48.208;11.174;2022-07-29T03:55:57;3.07;;;2.40;;
6177;SDS011;3122;48.208;11.174;2022-07-29T04:01:01;2.80;;;2.60;;
6177;SDS011;3122;48.208;11.174;2022-07-29T04:06:03;2.67;;;2.47;;
6177;SDS011;3122;48.208;11.174;2022-07-29T04:11:05;2.90;;;2.70;;
6177;SDS011;3122;48.208;11.174;2022-07-29T04:16:06;2.83;;;2.63;;
6177;SDS011;3122;48.208;11.174;2022-07-29T04:21:07;2.80;;;2.60;;
6177;SDS011;3122;48.208;11.174;2022-07-29T04:26:07;3.70;;;2.40;;
6177;SDS011;3122;48.208;11.174;2022-07-29T04:31:11;3.63;;;2.43;;
6177;SDS011;3122;48.208;11.174;2022-07-29T04:36:12;4.63;;;2.27;;
6177;SDS011;3122;48.208;11.174;2022-07-29T04:41:12;2.50;;;2.30;;
6177;SDS011;3122;48.208;11.174;2022-07-29T04:46:13;2.37;;;2.17;;
6177;SDS011;3122;48.208;11.174;2022-07-29T04:51:15;3.10;;;2.30;;
6177;SDS011;3122;48.208;11.174;2022-07-29T04:56:15;2.60;;;2.40;;
6177;SDS011;3122;48.208;11.174;2022-07-29T05:01:16;3.10;;;2.90;;
6177;SDS011;3122;48.208;11.174;2022-07-29T05:06:17;3.77;;;2.67;;
6177;SDS011;3122;48.208;11.174;2022-07-29T05:11:17;3.80;;;2.43;;
6177;SDS011;3122;48.208;11.174;2022-07-29T05:16:18;3.80;;;2.40;;
6177;SDS011;3122;48.208;11.174;2022-07-29T05:21:18;2.57;;;2.37;;
6177;SDS011;3122;48.208;11.174;2022-07-29T05:26:19;2.40;;;2.30;;
6177;SDS011;3122;48.208;11.174;2022-07-29T05:31:20;2.77;;;2.57;;
6177;SDS011;3122;48.208;11.174;2022-07-29T05:36:20;3.83;;;2.10;;
6177;SDS011;3122;48.208;11.174;2022-07-29T05:41:21;3.47;;;3.10;;
6177;SDS011;3122;48.208;11.174;2022-07-29T05:46:21;3.47;;;2.40;;
6177;SDS011;3122;48.208;11.174;2022-07-29T05:51:22;4.43;;;2.60;;
6177;SDS011;3122;48.208;11.174;2022-07-29T05:56:22;3.30;;;2.90;;
6177;SDS011;3122;48.208;11.174;2022-07-29T06:01:23;3.50;;;3.20;;
6177;SDS011;3122;48.208;11.174;2022-07-29T06:06:23;3.87;;;2.87;;
6177;SDS011;3122;48.208;11.174;2022-07-29T06:11:24;3.10;;;2.33;;
6177;SDS011;3122;48.208;11.174;2022-07-29T06:16:25;2.57;;;2.33;;
6177;SDS011;3122;48.208;11.174;2022-07-29T06:21:26;3.47;;;2.43;;
6177;SDS011;3122;48.208;11.174;2022-07-29T06:26:26;2.83;;;2.40;;
6177;SDS011;3122;48.208;11.174;2022-07-29T06:31:27;4.20;;;2.57;;
6177;SDS011;3122;48.208;11.174;2022-07-29T06:36:27;2.77;;;2.60;;
6177;SDS011;3122;48.208;11.174;2022-07-29T06:41:28;2.53;;;2.33;;
6177;SDS011;3122;48.208;11.174;2022-07-29T06:46:28;1.93;;;1.83;;
6177;SDS011;3122;48.208;11.174;2022-07-29T06:51:29;4.40;;;2.40;;
6177;SDS011;3122;48.208;11.174;2022-07-29T06:56:30;3.17;;;2.10;;
6177;SDS011;3122;48.208;11.174;2022-07-29T07:01:31;4.33;;;2.40;;
6177;SDS011;3122;48.208;11.174;2022-07-29T07:06:32;2.30;;;2.10;;
6177;SDS011;3122;48.208;11.174;2022-07-29T07:11:33;2.40;;;2.03;;
6177;SDS011;3122;48.208;11.174;2022-07-29T07:16:34;2.70;;;2.27;;
6177;SDS011;3122;48.208;11.174;2022-07-29T07:21:34;2.60;;;2.40;;
6177;SDS011;3122;48.208;11.174;2022-07-29T07:26:35;2.50;;;2.30;;
6177;SDS011;3122;48.208;11.174;2022-07-29T07:31:36;4.77;;;2.57;;
6177;SDS011;3122;48.208;11.174;2022-07-29T07:36:36;2.60;;;2.40;;
6177;SDS011;3122;48.208;11.174;2022-07-29T07:41:37;2.90;;;2.60;;
6177;SDS011;3122;48.208;11.174;2022-07-29T07:46:38;3.70;;;2.40;;
6177;SDS011;3122;48.208;11.174;2022-07-29T07:51:38;2.70;;;2.50;;
6177;SDS011;3122;48.208;11.174;2022-07-29T07:56:39;2.83;;;2.63;;
6177;SDS011;3122;48.208;11.174;2022-07-29T08:01:39;3.30;;;3.10;;
6177;SDS011;3122;48.208;11.174;2022-07-29T08:06:40;2.70;;;2.50;;
6177;SDS011;3122;48.208;11.174;2022-07-29T08:11:40;3.33;;;3.03;;
6177;SDS011;3122;48.208;11.174;2022-07-29T08:16:41;3.80;;;2.93;;
6177;SDS011;3122;48.208;11.174;2022-07-29T08:21:42;3.33;;;3.03;;
6177;SDS011;3122;48.208;11.174;2022-07-29T08:26:43;3.40;;;3.10;;
6177;SDS011;3122;48.208;11.174;2022-07-29T08:31:44;4.20;;;3.30;;
6177;SDS011;3122;48.208;11.174;2022-07-29T08:36:45;3.20;;;3.00;;
6177;SDS011;3122;48.208;11.174;2022-07-29T08:41:46;3.93;;;3.03;;
6177;SDS011;3122;48.208;11.174;2022-07-29T08:46:48;5.50;;;3.80;;
6177;SDS011;3122;48.208;11.174;2022-07-29T08:51:49;3.53;;;3.23;;
6177;SDS011;3122;48.208;11.174;2022-07-29T08:56:50;3.47;;;3.23;;
6177;SDS011;3122;48.208;11.174;2022-07-29T09:01:51;4.43;;;3.30;;
6177;SDS011;3122;48.208;11.174;2022-07-29T09:06:53;3.30;;;3.00;;
6177;SDS011;3122;48.208;11.174;2022-07-29T09:11:57;3.80;;;3.30;;
6177;SDS011;3122;48.208;11.174;2022-07-29T09:16:59;3.83;;;3.53;;
6177;SDS011;3122;48.208;11.174;2022-07-29T09:22:01;3.87;;;3.57;;
6177;SDS011;3122;48.208;11.174;2022-07-29T09:27:07;4.43;;;3.70;;
6177;SDS011;3122;48.208;11.174;2022-07-29T09:32:19;4.73;;;3.43;;
6177;SDS011;3122;48.208;11.174;2022-07-29T09:37:27;4.47;;;3.00;;
6177;SDS011;3122;48.208;11.174;2022-07-29T09:42:29;3.50;;;3.30;;
6177;SDS011;3122;48.208;11.174;2022-07-29T09:47:43;3.53;;;3.33;;
6177;SDS011;3122;48.208;11.174;2022-07-29T09:52:47;4.23;;;3.93;;
6177;SDS011;3122;48.208;11.174;2022-07-29T09:57:49;4.53;;;4.10;;
6177;SDS011;3122;48.208;11.174;2022-07-29T10:02:50;5.07;;;4.20;;
6177;SDS011;3122;48.208;11.174;2022-07-29T10:07:51;5.07;;;4.03;;
6177;SDS011;3122;48.208;11.174;2022-07-29T10:12:57;4.90;;;4.20;;
6177;SDS011;3122;48.208;11.174;2022-07-29T10:17:59;4.90;;;4.40;;
6177;SDS011;3122;48.208;11.174;2022-07-29T10:23:00;6.60;;;4.57;;
6177;SDS011;3122;48.208;11.174;2022-07-29T10:28:00;4.57;;;4.27;;
6177;SDS011;3122;48.208;11.174;2022-07-29T10:43:45;5.43;;;4.73;;
6177;SDS011;3122;48.208;11.174;2022-07-29T10:49:05;4.50;;;4.10;;
6177;SDS011;3122;48.208;11.174;2022-07-29T10:54:59;4.50;;;4.20;;
6177;SDS011;3122;48.208;11.174;2022-07-29T10:59:48;4.83;;;4.50;;
6177;SDS011;3122;48.208;11.174;2022-07-29T11:15:14;8.33;;;4.30;;
6177;SDS011;3122;48.208;11.174;2022-07-29T11:25:38;4.93;;;4.50;;
6177;SDS011;3122;48.208;11.174;2022-07-29T11:30:47;4.57;;;4.17;;
6177;SDS011;3122;48.208;11.174;2022-07-29T11:36:06;4.57;;;4.10;;
6177;SDS011;3122;48.208;11.174;2022-07-29T11:41:22;3.80;;;3.50;;
6177;SDS011;3122;48.208;11.174;2022-07-29T11:51:50;7.90;;;4.20;;
6177;SDS011;3122;48.208;11.174;2022-07-29T11:56:57;4.37;;;3.97;;
6177;SDS011;3122;48.208;11.174;2022-07-29T12:01:59;4.33;;;4.03;;
6177;SDS011;3122;48.208;11.174;2022-07-29T12:06:59;4.20;;;3.47;;
6177;SDS011;3122;48.208;11.174;2022-07-29T12:12:00;3.80;;;3.50;;
6177;SDS011;3122;48.208;11.174;2022-07-29T12:17:01;3.90;;;3.50;;
6177;SDS011;3122;48.208;11.174;2022-07-29T12:22:01;7.83;;;3.53;;
6177;SDS011;3122;48.208;11.174;2022-07-29T12:27:02;4.80;;;3.47;;
6177;SDS011;3122;48.208;11.174;2022-07-29T12:32:03;3.60;;;3.30;;
6177;SDS011;3122;48.208;11.174;2022-07-29T12:37:06;3.63;;;3.33;;
6177;SDS011;3122;48.208;11.174;2022-07-29T12:42:12;5.90;;;3.40;;
6177;SDS011;3122;48.208;11.174;2022-07-29T12:47:14;4.00;;;3.60;;
6177;SDS011;3122;48.208;11.174;2022-07-29T12:52:32;4.40;;;3.60;;
6177;SDS011;3122;48.208;11.174;2022-07-29T12:57:47;3.13;;;2.93;;
6177;SDS011;3122;48.208;11.174;2022-07-29T13:02:57;7.70;;;3.40;;
6177;SDS011;3122;48.208;11.174;2022-07-29T13:08:09;5.90;;;3.40;;
6177;SDS011;3122;48.208;11.174;2022-07-29T13:13:14;3.57;;;3.37;;
6177;SDS011;3122;48.208;11.174;2022-07-29T13:18:31;3.90;;;3.60;;
6177;SDS011;3122;48.208;11.174;2022-07-29T13:23:35;4.43;;;3.50;;
6177;SDS011;3122;48.208;11.174;2022-07-29T13:28:36;6.60;;;3.80;;
6177;SDS011;3122;48.208;11.174;2022-07-29T13:33:37;4.67;;;4.27;;
6177;SDS011;3122;48.208;11.174;2022-07-29T13:38:38;4.43;;;3.97;;
6177;SDS011;3122;48.208;11.174;2022-07-29T13:43:38;4.00;;;3.53;;
6177;SDS011;3122;48.208;11.174;2022-07-29T13:48:39;4.37;;;3.97;;
6177;SDS011;3122;48.208;11.174;2022-07-29T13:53:39;4.37;;;4.07;;
6177;SDS011;3122;48.208;11.174;2022-07-29T13:58:40;4.00;;;3.60;;
6177;SDS011;3122;48.208;11.174;2022-07-29T14:03:40;4.00;;;3.70;;
6177;SDS011;3122;48.208;11.174;2022-07-29T14:08:42;4.60;;;4.20;;
6177;SDS011;3122;48.208;11.174;2022-07-29T14:13:43;5.40;;;3.90;;
6177;SDS011;3122;48.208;11.174;2022-07-29T14:18:44;4.80;;;4.40;;
6177;SDS011;3122;48.208;11.174;2022-07-29T14:23:45;5.87;;;4.53;;
6177;SDS011;3122;48.208;11.174;2022-07-29T14:28:45;4.80;;;4.40;;
6177;SDS011;3122;48.208;11.174;2022-07-29T14:33:46;6.27;;;4.50;;
6177;SDS011;3122;48.208;11.174;2022-07-29T14:38:46;5.47;;;4.97;;
6177;SDS011;3122;48.208;11.174;2022-07-29T14:43:47;10.13;;;4.67;;
6177;SDS011;3122;48.208;11.174;2022-07-29T14:48:48;5.87;;;4.93;;
6177;SDS011;3122;48.208;11.174;2022-07-29T14:53:48;5.80;;;4.67;;
6177;SDS011;3122;48.208;11.174;2022-07-29T14:58:49;4.57;;;4.10;;
6177;SDS011;3122;48.208;11.174;2022-07-29T15:03:50;5.50;;;4.27;;
6177;SDS011;3122;48.208;11.174;2022-07-29T15:08:51;5.00;;;4.60;;
6177;SDS011;3122;48.208;11.174;2022-07-29T15:13:51;4.63;;;4.20;;
6177;SDS011;3122;48.208;11.174;2022-07-29T15:18:52;6.70;;;4.67;;
6177;SDS011;3122;48.208;11.174;2022-07-29T15:23:53;5.20;;;4.70;;
6177;SDS011;3122;48.208;11.174;2022-07-29T15:28:53;5.60;;;5.10;;
6177;SDS011;3122;48.208;11.174;2022-07-29T15:33:55;4.93;;;4.53;;
6177;SDS011;3122;48.208;11.174;2022-07-29T15:38:56;8.03;;;5.00;;
6177;SDS011;3122;48.208;11.174;2022-07-29T15:43:57;6.07;;;5.00;;
6177;SDS011;3122;48.208;11.174;2022-07-29T15:48:58;5.80;;;5.30;;
6177;SDS011;3122;48.208;11.174;2022-07-29T15:54:00;6.10;;;4.90;;
6177;SDS011;3122;48.208;11.174;2022-07-29T15:59:02;9.87;;;4.83;;
6177;SDS011;3122;48.208;11.174;2022-07-29T16:04:02;4.90;;;4.60;;
6177;SDS011;3122;48.208;11.174;2022-07-29T16:09:03;7.10;;;4.47;;
6177;SDS011;3122;48.208;11.174;2022-07-29T16:14:04;6.93;;;4.60;;
6177;SDS011;3122;48.208;11.174;2022-07-29T16:19:05;4.57;;;4.17;;
6177;SDS011;3122;48.208;11.174;2022-07-29T16:24:08;4.63;;;4.20;;
6177;SDS011;3122;48.208;11.174;2022-07-29T16:29:08;5.57;;;4.13;;
6177;SDS011;3122;48.208;11.174;2022-07-29T16:34:09;5.90;;;4.40;;
6177;SDS011;3122;48.208;11.174;2022-07-29T16:39:10;4.80;;;4.40;;
6177;SDS011;3122;48.208;11.174;2022-07-29T16:44:11;5.10;;;4.10;;
6177;SDS011;3122;48.208;11.174;2022-07-29T16:49:12;6.27;;;4.33;;
6177;SDS011;3122;48.208;11.174;2022-07-29T16:54:12;9.47;;;4.57;;
6177;SDS011;3122;48.208;11.174;2022-07-29T16:59:13;4.87;;;3.83;;
6177;SDS011;3122;48.208;11.174;2022-07-29T17:04:14;7.70;;;3.40;;
6177;SDS011;3122;48.208;11.174;2022-07-29T17:09:14;2.50;;;2.30;;
6177;SDS011;3122;48.208;11.174;2022-07-29T17:14:15;2.53;;;2.27;;
6177;SDS011;3122;48.208;11.174;2022-07-29T17:19:16;4.33;;;1.80;;
6177;SDS011;3122;48.208;11.174;2022-07-29T17:24:16;2.90;;;1.50;;
6177;SDS011;3122;48.208;11.174;2022-07-29T17:29:17;3.67;;;1.40;;
6177;SDS011;3122;48.208;11.174;2022-07-29T17:34:17;1.43;;;1.33;;
6177;SDS011;3122;48.208;11.174;2022-07-29T17:39:18;1.30;;;1.20;;
6177;SDS011;3122;48.208;11.174;2022-07-29T17:44:19;4.60;;;1.30;;
6177;SDS011;3122;48.208;11.174;2022-07-29T17:49:19;1.37;;;1.10;;
6177;SDS011;3122;48.208;11.174;2022-07-29T17:54:20;1.33;;;1.23;;
6177;SDS011;3122;48.208;11.174;2022-07-29T17:59:20;1.13;;;1.03;;
6177;SDS011;3122;48.208;11.174;2022-07-29T18:04:21;1.40;;;1.30;;
6177;SDS011;3122;48.208;11.174;2022-07-29T18:09:22;1.63;;;1.47;;
6177;SDS011;3122;48.208;11.174;2022-07-29T18:14:22;4.80;;;1.60;;
6177;SDS011;3122;48.208;11.174;2022-07-29T18:19:23;1.60;;;1.50;;
6177;SDS011;3122;48.208;11.174;2022-07-29T18:24:24;3.30;;;1.90;;
6177;SDS011;3122;48.208;11.174;2022-07-29T18:29:26;2.40;;;1.93;;
6177;SDS011;3122;48.208;11.174;2022-07-29T18:34:27;2.77;;;1.80;;
6177;SDS011;3122;48.208;11.174;2022-07-29T18:39:28;2.40;;;1.50;;
6177;SDS011;3122;48.208;11.174;2022-07-29T18:44:29;4.60;;;1.93;;
6177;SDS011;3122;48.208;11.174;2022-07-29T18:49:29;1.70;;;1.60;;
6177;SDS011;3122;48.208;11.174;2022-07-29T18:54:30;2.17;;;1.80;;
6177;SDS011;3122;48.208;11.174;2022-07-29T18:59:30;2.37;;;2.17;;
6177;SDS011;3122;48.208;11.174;2022-07-29T19:04:33;2.37;;;2.20;;
6177;SDS011;3122;48.208;11.174;2022-07-29T19:09:33;2.97;;;2.40;;
6177;SDS011;3122;48.208;11.174;2022-07-29T19:14:35;5.60;;;2.50;;
6177;SDS011;3122;48.208;11.174;2022-07-29T19:19:36;3.60;;;3.30;;
6177;SDS011;3122;48.208;11.174;2022-07-29T19:24:37;4.33;;;3.27;;
6177;SDS011;3122;48.208;11.174;2022-07-29T19:29:37;3.63;;;3.33;;
6177;SDS011;3122;48.208;11.174;2022-07-29T19:34:38;4.47;;;4.10;;
6177;SDS011;3122;48.208;11.174;2022-07-29T19:39:38;4.50;;;4.10;;
6177;SDS011;3122;48.208;11.174;2022-07-29T19:44:39;5.00;;;4.50;;
6177;SDS011;3122;48.208;11.174;2022-07-29T19:49:40;7.13;;;4.60;;
6177;SDS011;3122;48.208;11.174;2022-07-29T19:54:40;5.07;;;4.57;;
6177;SDS011;3122;48.208;11.174;2022-07-29T19:59:41;5.60;;;5.10;;
6177;SDS011;3122;48.208;11.174;2022-07-29T20:04:42;5.00;;;4.60;;
6177;SDS011;3122;48.208;11.174;2022-07-29T20:09:42;6.13;;;4.80;;
6177;SDS011;3122;48.208;11.174;2022-07-29T20:14:44;5.07;;;4.63;;
6177;SDS011;3122;48.208;11.174;2022-07-29T20:19:45;5.30;;;4.90;;
6177;SDS011;3122;48.208;11.174;2022-07-29T20:24:45;5.63;;;5.10;;
6177;SDS011;3122;48.208;11.174;2022-07-29T20:29:46;5.90;;;5.30;;
6177;SDS011;3122;48.208;11.174;2022-07-29T20:34:47;5.60;;;5.10;;
6177;SDS011;3122;48.208;11.174;2022-07-29T20:39:47;6.00;;;5.40;;
6177;SDS011;3122;48.208;11.174;2022-07-29T20:44:48;5.80;;;5.30;;
6177;SDS011;3122;48.208;11.174;2022-07-29T20:49:50;5.60;;;5.10;;
6177;SDS011;3122;48.208;11.174;2022-07-29T20:54:51;5.40;;;4.90;;
6177;SDS011;3122;48.208;11.174;2022-07-29T20:59:52;5.60;;;5.10;;
6177;SDS011;3122;48.208;11.174;2022-07-29T21:04:52;5.07;;;4.70;;
6177;SDS011;3122;48.208;11.174;2022-07-29T21:09:53;5.93;;;5.13;;
6177;SDS011;3122;48.208;11.174;2022-07-29T21:14:53;7.83;;;4.50;;
6177;SDS011;3122;48.208;11.174;2022-07-29T21:19:54;7.30;;;5.00;;
6177;SDS011;3122;48.208;11.174;2022-07-29T21:24:55;6.83;;;5.67;;
6177;SDS011;3122;48.208;11.174;2022-07-29T21:29:55;6.00;;;5.43;;
6177;SDS011;3122;48.208;11.174;2022-07-29T21:34:56;6.30;;;5.70;;
6177;SDS011;3122;48.208;11.174;2022-07-29T21:39:57;9.60;;;5.50;;
6177;SDS011;3122;48.208;11.174;2022-07-29T21:44:58;11.87;;;6.57;;
6177;SDS011;3122;48.208;11.174;2022-07-29T21:49:58;5.50;;;5.00;;
6177;SDS011;3122;48.208;11.174;2022-07-29T21:54:59;8.57;;;6.07;;
6177;SDS011;3122;48.208;11.174;2022-07-29T22:00:00;6.00;;;5.07;;
6177;SDS011;3122;48.208;11.174;2022-07-29T22:05:00;8.10;;;5.77;;
6177;SDS011;3122;48.208;11.174;2022-07-29T22:10:01;5.40;;;4.90;;
6177;SDS011;3122;48.208;11.174;2022-07-29T22:15:03;5.43;;;5.03;;
6177;SDS011;3122;48.208;11.174;2022-07-29T22:20:04;6.13;;;5.57;;
6177;SDS011;3122;48.208;11.174;2022-07-29T22:25:05;6.87;;;5.53;;
6177;SDS011;3122;48.208;11.174;2022-07-29T22:30:07;7.67;;;6.50;;
6177;SDS011;3122;48.208;11.174;2022-07-29T22:35:08;6.93;;;5.77;;
6177;SDS011;3122;48.208;11.174;2022-07-29T22:40:09;5.63;;;5.17;;
6177;SDS011;3122;48.208;11.174;2022-07-29T22:45:10;8.73;;;6.37;;
6177;SDS011;3122;48.208;11.174;2022-07-29T22:50:11;6.27;;;5.77;;
6177;SDS011;3122;48.208;11.174;2022-07-29T22:55:12;7.00;;;5.90;;
6177;SDS011;3122;48.208;11.174;2022-07-29T23:00:13;5.93;;;5.30;;
6177;SDS011;3122;48.208;11.174;2022-07-29T23:05:14;6.43;;;5.83;;
6177;SDS011;3122;48.208;11.174;2022-07-29T23:10:14;6.27;;;5.67;;
6177;SDS011;3122;48.208;11.174;2022-07-29T23:15:15;6.47;;;5.87;;
6177;SDS011;3122;48.208;11.174;2022-07-29T23:20:16;10.53;;;5.83;;
6177;SDS011;3122;48.208;11.174;2022-07-29T23:25:16;5.90;;;5.37;;
6177;SDS011;3122;48.208;11.174;2022-07-29T23:30:17;6.00;;;5.50;;
6177;SDS011;3122;48.208;11.174;2022-07-29T23:35:17;5.60;;;5.10;;
6177;SDS011;3122;48.208;11.174;2022-07-29T23:40:18;6.37;;;5.30;;
6177;SDS011;3122;48.208;11.174;2022-07-29T23:45:19;5.40;;;5.00;;
6177;SDS011;3122;48.208;11.174;2022-07-29T23:50:19;6.17;;;5.50;;
6177;SDS011;3122;48.208;11.174;2022-07-29T23:55:20;5.60;;;5.10;;
